メインページ
METAR-TAF:

METAR-TAF

空港 :

ムルマンスク, ロシア

緯度: 68-58N, 経度: 033-03E, 海抜: 51m

現時点の気象観測

当レポートは36分前の22:30(UTC)に作成
変向風 2kt
気温 -3°C
湿度 100%
気圧 1022 hPa
視程: 3700m
高度200ftの千切れ雲あり

METAR: ULMM 112230Z VRB01MPS 3700 BR BKN002 M03/M03 Q1022 R31/490137 NOSIG RMK QBB080 OBST OBSC QFE759

時間: 02:06 (23:06 UTC)

予報

当レポートは3時間16分前の19:50(UTC)に作成
予報は11日の 21時(UTC)から 12日の 21時(UTC)まで有効
西/南西の風 6kt
視程: 3100m
高度400ftの千切れ雲あり
高度1100ftの曇り
(弱い) 霧雪, 靄
11日の 21時(UTC)から 12日の 06時(UTC)まで一時的に
西の風 4kt
視程: 0400m
高度100ftの曇り
着氷性の霧
12日の 06時(UTC)から 12日の 07時(UTC)まで徐々に
視程10km以上
高度1100ftの千切れ雲あり
12日の 07時(UTC)から 12日の 12時(UTC)まで一時的に
西の風 6kt
視程: 3100m
高度600ftの雲は散在している
高度1100ftの千切れ雲あり, 積乱雲.
弱いにわか雪, 靄
12日の 12時(UTC)から 12日の 21時(UTC)まで一時的に
西の風 6kt
視程: 4000m
高度1100ftの千切れ雲あり, 積乱雲.
弱いにわか雪

TAF: ULMM 111950Z 1121/1221 24003MPS 3100 -SG BR BKN004 OVC011 TEMPO 1121/1206 27002MPS 0400 FZFG OVC001 BECMG 1206/1207 9999 NSW BKN011 TEMPO 1207/1212 27003MPS 3100 -SHSN BR SCT006 BKN011CB TEMPO 1212/1221 27003MPS 4000 -SHSN BKN011CB

4,000以上の空港の気象観測と天気予報(METAR報とTAF報)

利用可能な観測所は地図上に黄色い丸と赤い丸で示す。

丸の上にカーソルを重ねると観測所名を参照できる。

次にクリックすると気象観測と天気予報を参照できる。

マップの切り替え:黒色「×」印の緑ボタンをクリックして拡大、「-」印の緑ボタンをクリックして縮小、緑色の三角印をクリックして隣りの地図に切り替え


METAR-TAF: